createdAt,value
2019-01-19T00:00:33.091Z,99.90
2019-01-19T00:03:10.364Z,99.90
2019-01-19T00:05:59.858Z,99.90
2019-01-19T00:08:31.590Z,99.90
2019-01-19T00:11:37.868Z,99.90
2019-01-19T00:14:09.642Z,99.90
2019-01-19T00:16:41.590Z,99.90
2019-01-19T00:19:46.916Z,99.90
2019-01-19T00:22:24.763Z,99.90
2019-01-19T00:25:14.141Z,99.90
2019-01-19T00:27:49.271Z,99.90
2019-01-19T00:30:24.030Z,99.90
2019-01-19T00:33:01.455Z,99.90
2019-01-19T00:35:57.470Z,99.90
2019-01-19T00:38:43.985Z,99.90
2019-01-19T00:41:18.531Z,99.90
2019-01-19T00:43:49.228Z,99.90
2019-01-19T00:46:29.855Z,99.90
2019-01-19T00:49:07.687Z,99.90
2019-01-19T00:51:45.429Z,99.90
2019-01-19T00:54:23.251Z,99.90
2019-01-19T00:57:11.503Z,99.90
2019-01-19T00:59:41.119Z,99.90
2019-01-19T01:02:43.551Z,99.90
2019-01-19T01:05:25.057Z,99.90
2019-01-19T01:08:00.489Z,99.90
2019-01-19T01:10:40.809Z,99.90
2019-01-19T01:13:18.152Z,99.90
2019-01-19T01:15:49.947Z,99.90
2019-01-19T01:18:21.667Z,99.90
2019-01-19T01:20:59.536Z,99.90
2019-01-19T01:23:43.344Z,99.90
2019-01-19T01:26:19.028Z,99.90
2019-01-19T01:29:23.647Z,99.90
2019-01-19T01:32:07.413Z,99.90
2019-01-19T01:34:45.436Z,99.90
2019-01-19T01:37:22.996Z,99.90
2019-01-19T01:40:03.800Z,99.90
2019-01-19T01:42:41.244Z,99.90
2019-01-19T01:45:18.734Z,99.90
2019-01-19T01:48:17.877Z,99.90
2019-01-19T01:50:58.317Z,99.90
2019-01-19T01:53:55.615Z,99.90
2019-01-19T01:56:24.002Z,99.90
2019-01-19T01:59:12.274Z,99.90
2019-01-19T02:01:46.865Z,99.90
2019-01-19T02:04:27.053Z,99.90
2019-01-19T02:07:04.658Z,99.90
2019-01-19T02:09:41.977Z,99.90
2019-01-19T02:12:31.744Z,99.90
2019-01-19T02:15:06.244Z,99.90
2019-01-19T02:17:40.716Z,99.90
2019-01-19T02:20:15.101Z,99.90
2019-01-19T02:23:04.590Z,99.90
2019-01-19T02:25:51.169Z,99.90
2019-01-19T02:28:23.957Z,99.90
2019-01-19T02:31:13.917Z,99.90
2019-01-19T02:33:48.528Z,99.90
2019-01-19T02:36:41.304Z,99.90
2019-01-19T02:39:27.793Z,99.90
2019-01-19T02:42:15.895Z,99.90
2019-01-19T02:45:11.400Z,99.90
2019-01-19T02:47:59.367Z,99.90
2019-01-19T02:50:31.203Z,99.90
2019-01-19T02:53:34.547Z,99.90
2019-01-19T02:56:08.793Z,99.90
2019-01-19T02:58:46.633Z,99.90
2019-01-19T03:01:30.140Z,99.90
2019-01-19T03:04:04.519Z,99.90
2019-01-19T03:06:45.082Z,99.90
2019-01-19T03:09:34.947Z,99.90
2019-01-19T03:12:15.612Z,99.90
2019-01-19T03:14:52.904Z,99.90
2019-01-19T03:17:27.415Z,99.90
2019-01-19T03:19:59.094Z,99.90
2019-01-19T03:22:42.935Z,99.90
2019-01-19T03:25:32.540Z,99.90
2019-01-19T03:28:36.152Z,99.90
2019-01-19T03:31:29.647Z,99.90
2019-01-19T03:34:01.436Z,99.90
2019-01-19T03:36:38.866Z,99.90
2019-01-19T03:39:22.515Z,99.90
2019-01-19T03:42:15.417Z,99.90
2019-01-19T03:44:52.661Z,99.90
2019-01-19T03:47:45.599Z,99.90
2019-01-19T03:50:32.010Z,99.90
2019-01-19T03:53:09.335Z,99.90
2019-01-19T03:56:12.863Z,99.90
2019-01-19T03:58:44.554Z,99.90
2019-01-19T04:01:31.409Z,99.90
2019-01-19T04:04:36.405Z,99.90
2019-01-19T04:07:08.207Z,99.90
2019-01-19T04:09:54.979Z,99.90
2019-01-19T04:12:53.963Z,99.90
2019-01-19T04:15:43.568Z,99.90
2019-01-19T04:18:27.024Z,99.90
2019-01-19T04:21:13.801Z,99.90
2019-01-19T04:23:45.502Z,99.90
2019-01-19T04:26:15.235Z,99.90
2019-01-19T04:28:44.133Z,99.90
2019-01-19T04:31:12.719Z,99.90
2019-01-19T04:33:42.218Z,99.90
2019-01-19T04:36:11.622Z,99.90
2019-01-19T04:38:41.508Z,99.90
2019-01-19T04:41:09.880Z,99.90
2019-01-19T04:43:38.316Z,99.90
2019-01-19T04:46:06.712Z,99.90
2019-01-19T04:48:35.965Z,99.90
2019-01-19T04:51:04.508Z,99.90
2019-01-19T04:53:32.908Z,99.90
2019-01-19T04:56:01.331Z,99.90
2019-01-19T04:58:29.772Z,99.90
2019-01-19T05:00:58.167Z,99.90
2019-01-19T05:03:26.562Z,99.90
2019-01-19T05:05:54.995Z,99.90
2019-01-19T05:08:23.387Z,99.90
2019-01-19T05:10:51.798Z,99.90
2019-01-19T05:13:20.231Z,99.90
2019-01-19T05:15:48.630Z,99.90
2019-01-19T05:18:17.604Z,99.90
2019-01-19T05:20:46.199Z,99.90
2019-01-19T05:23:14.694Z,99.90
2019-01-19T05:25:43.144Z,99.90
2019-01-19T05:28:11.564Z,99.90
2019-01-19T05:30:40.009Z,99.90
2019-01-19T05:33:08.409Z,99.90
2019-01-19T05:35:37.768Z,99.90
2019-01-19T05:38:06.160Z,99.90
2019-01-19T05:40:34.620Z,99.90
2019-01-19T05:43:03.044Z,99.90
2019-01-19T05:45:31.718Z,99.90
2019-01-19T05:48:00.120Z,99.90
2019-01-19T05:50:28.551Z,99.90
2019-01-19T05:52:57.050Z,99.90
2019-01-19T05:55:25.448Z,99.90
2019-01-19T05:57:53.882Z,99.90
2019-01-19T06:00:25.755Z,99.90
2019-01-19T06:02:54.257Z,99.90
2019-01-19T06:05:22.735Z,99.90
2019-01-19T06:07:51.131Z,99.90
2019-01-19T06:10:19.518Z,99.90
2019-01-19T06:12:48.018Z,99.90
2019-01-19T06:15:16.521Z,99.90
2019-01-19T06:17:44.954Z,99.90
2019-01-19T06:20:17.840Z,99.90
2019-01-19T06:22:46.304Z,99.90
2019-01-19T06:25:15.847Z,99.90
2019-01-19T06:27:44.271Z,99.90
2019-01-19T06:30:20.975Z,99.90
2019-01-19T06:32:49.403Z,99.90
2019-01-19T06:35:17.863Z,99.90
2019-01-19T06:37:47.345Z,99.90
2019-01-19T06:40:17.607Z,99.90
2019-01-19T06:42:46.140Z,99.90
2019-01-19T06:45:19.668Z,99.90
2019-01-19T06:47:48.107Z,99.90
2019-01-19T06:50:17.183Z,99.90
2019-01-19T06:52:45.588Z,99.90
2019-01-19T06:55:17.206Z,99.90
2019-01-19T06:57:45.598Z,99.90
2019-01-19T07:00:16.122Z,99.90
2019-01-19T07:02:44.575Z,99.90
2019-01-19T07:05:13.431Z,99.90
2019-01-19T07:07:41.967Z,99.90
2019-01-19T07:10:16.045Z,99.90
2019-01-19T07:12:44.986Z,99.90
2019-01-19T07:15:14.369Z,99.90
2019-01-19T07:17:43.039Z,99.90
2019-01-19T07:20:20.503Z,99.90
2019-01-19T07:22:48.978Z,99.90
2019-01-19T07:25:19.050Z,99.90
2019-01-19T07:27:47.451Z,99.90
2019-01-19T07:30:17.387Z,99.90
2019-01-19T07:32:47.021Z,99.90
2019-01-19T07:35:16.063Z,99.90
2019-01-19T07:37:44.700Z,99.90
2019-01-19T07:40:18.633Z,99.90
2019-01-19T07:42:49.018Z,99.90
2019-01-19T07:45:17.418Z,99.90
2019-01-19T07:47:45.944Z,99.90
2019-01-19T07:50:16.612Z,99.90
2019-01-19T07:52:45.344Z,99.90
2019-01-19T07:55:17.875Z,99.90
2019-01-19T07:57:46.768Z,99.90
2019-01-19T08:00:27.142Z,99.90
2019-01-19T08:02:55.679Z,99.90
2019-01-19T08:05:24.078Z,99.90
2019-01-19T08:07:52.499Z,99.90
2019-01-19T08:10:21.492Z,99.90
2019-01-19T08:12:50.431Z,99.90
2019-01-19T08:15:24.120Z,99.90
2019-01-19T08:17:52.563Z,99.90
2019-01-19T08:20:21.107Z,99.90
2019-01-19T08:22:49.577Z,99.90
2019-01-19T08:25:23.862Z,99.90
2019-01-19T08:27:53.038Z,99.90
2019-01-19T08:30:26.584Z,99.90
2019-01-19T08:32:55.080Z,99.90
2019-01-19T08:35:24.643Z,99.90
2019-01-19T08:37:53.784Z,99.90
2019-01-19T08:40:28.072Z,99.90
2019-01-19T08:42:59.132Z,99.90
2019-01-19T08:45:28.007Z,99.90
2019-01-19T08:47:56.447Z,99.90
2019-01-19T08:50:24.860Z,99.90
2019-01-19T08:52:53.267Z,99.90
2019-01-19T08:55:22.696Z,99.90
2019-01-19T08:57:51.666Z,99.90
2019-01-19T09:00:22.144Z,99.90
2019-01-19T09:02:50.556Z,99.90
2019-01-19T09:05:19.020Z,99.90
2019-01-19T09:07:47.685Z,99.90
2019-01-19T09:10:17.790Z,99.90
2019-01-19T09:12:46.316Z,99.90
2019-01-19T09:15:17.848Z,99.90
2019-01-19T09:17:46.303Z,99.90
2019-01-19T09:20:16.324Z,99.90
2019-01-19T09:22:46.260Z,99.90
2019-01-19T09:25:15.904Z,99.90
2019-01-19T09:27:44.841Z,99.90
2019-01-19T09:30:21.899Z,99.90
2019-01-19T09:32:50.562Z,99.90
2019-01-19T09:35:19.116Z,99.90
2019-01-19T09:37:47.892Z,99.90
2019-01-19T09:40:19.167Z,99.90
2019-01-19T09:42:47.980Z,99.90
2019-01-19T09:45:18.996Z,99.90
2019-01-19T09:47:47.495Z,99.90
2019-01-19T09:50:21.281Z,99.90
2019-01-19T09:52:49.924Z,99.90
2019-01-19T09:55:18.522Z,99.90
2019-01-19T09:57:47.484Z,99.90
2019-01-19T10:00:22.092Z,99.90
2019-01-19T10:02:50.766Z,99.90
2019-01-19T10:05:22.140Z,99.90
2019-01-19T10:07:51.073Z,99.90
2019-01-19T10:10:22.563Z,99.90
2019-01-19T10:12:51.177Z,99.90
2019-01-19T10:15:21.245Z,99.90
2019-01-19T10:17:49.749Z,99.90
2019-01-19T10:20:20.784Z,99.90
2019-01-19T10:22:51.351Z,99.90
2019-01-19T10:25:19.432Z,99.90
2019-01-19T10:27:48.411Z,99.90
2019-01-19T10:30:19.672Z,99.90
2019-01-19T10:32:48.064Z,99.90
2019-01-19T10:35:17.086Z,99.90
2019-01-19T10:40:47.906Z,93.70
2019-01-19T10:43:16.643Z,99.90
2019-01-19T10:45:45.217Z,83.70
2019-01-19T10:48:14.808Z,95.60
2019-01-19T10:50:43.389Z,99.90
2019-01-19T10:53:13.367Z,99.90
2019-01-19T10:55:42.231Z,99.90
2019-01-19T10:58:11.747Z,99.90
2019-01-19T11:00:41.170Z,99.90
2019-01-19T11:03:14.924Z,99.90
2019-01-19T11:05:48.384Z,99.90
2019-01-19T11:08:24.049Z,99.60
2019-01-19T11:10:52.839Z,95.00
2019-01-19T11:13:22.328Z,93.80
2019-01-19T11:15:51.276Z,83.30
2019-01-19T11:18:19.755Z,76.90
2019-01-19T11:20:48.862Z,69.30
2019-01-19T11:23:17.944Z,69.10
2019-01-19T11:25:46.615Z,62.00
2019-01-19T11:28:15.384Z,52.50
2019-01-19T11:30:43.977Z,50.70
2019-01-19T11:33:12.531Z,48.50
2019-01-19T11:35:41.158Z,44.70
2019-01-19T11:38:12.026Z,43.30
2019-01-19T11:40:40.327Z,42.00
2019-01-19T11:43:09.010Z,41.30
2019-01-19T11:45:37.505Z,40.00
2019-01-19T11:48:06.696Z,40.10
2019-01-19T11:50:36.097Z,41.60
2019-01-19T11:53:06.863Z,38.90
2019-01-19T11:55:35.616Z,39.30
2019-01-19T11:58:04.154Z,43.40
2019-01-19T12:00:37.945Z,41.50
2019-01-19T12:03:07.675Z,40.00
2019-01-19T12:05:37.209Z,37.80
2019-01-19T12:08:06.431Z,40.00
2019-01-19T12:10:35.400Z,41.20
2019-01-19T12:13:03.848Z,40.20
2019-01-19T12:15:32.767Z,39.90
2019-01-19T12:18:01.640Z,36.10
2019-01-19T12:20:36.071Z,36.60
2019-01-19T12:23:04.515Z,42.50
2019-01-19T12:25:33.268Z,40.00
2019-01-19T12:28:03.933Z,43.60
2019-01-19T12:30:33.603Z,47.70
2019-01-19T12:33:04.271Z,48.10
2019-01-19T12:35:33.505Z,50.10
2019-01-19T12:38:03.619Z,51.40
2019-01-19T12:40:32.558Z,52.20
2019-01-19T12:43:09.850Z,55.20
2019-01-19T12:45:48.240Z,59.10
2019-01-19T12:48:16.920Z,61.00
2019-01-19T12:50:46.336Z,60.80
2019-01-19T12:53:16.013Z,56.60
2019-01-19T12:55:45.886Z,63.10
2019-01-19T12:58:15.880Z,68.10
2019-01-19T13:00:45.012Z,72.80
2019-01-19T13:03:14.446Z,79.60
2019-01-19T13:05:49.236Z,92.90
2019-01-19T13:08:34.460Z,95.70
2019-01-19T13:11:18.082Z,97.80
2019-01-19T13:13:47.757Z,99.90
2019-01-19T13:16:29.436Z,99.90
2019-01-19T13:19:10.643Z,99.90
2019-01-19T13:21:55.314Z,99.90
2019-01-19T13:24:32.947Z,99.90
2019-01-19T13:27:24.056Z,99.90
2019-01-19T13:30:18.886Z,99.90
2019-01-19T13:33:09.619Z,99.90
2019-01-19T13:35:51.707Z,99.90
2019-01-19T13:38:28.352Z,99.90
2019-01-19T13:41:16.937Z,99.90
2019-01-19T13:43:54.417Z,99.90
2019-01-19T13:46:50.531Z,99.90
2019-01-19T13:49:57.432Z,99.90
2019-01-19T13:52:33.174Z,99.90
2019-01-19T13:55:21.295Z,99.90
2019-01-19T13:57:53.006Z,99.90
2019-01-19T14:00:39.656Z,99.90
2019-01-19T14:03:25.106Z,99.90
2019-01-19T14:06:08.899Z,99.90
2019-01-19T14:08:55.444Z,99.90
2019-01-19T14:11:56.229Z,99.90
2019-01-19T14:14:49.069Z,99.90
2019-01-19T14:17:26.276Z,99.90
2019-01-19T14:20:03.858Z,99.90
2019-01-19T14:22:35.556Z,99.90
2019-01-19T14:25:13.172Z,99.90
2019-01-19T14:27:59.879Z,99.90
2019-01-19T14:33:51.380Z,99.90
2019-01-19T14:36:39.081Z,99.90
2019-01-19T14:39:23.507Z,99.90
2019-01-19T14:42:10.288Z,99.90
2019-01-19T14:44:54.785Z,99.90
2019-01-19T14:47:41.383Z,99.90
2019-01-19T14:50:32.026Z,99.90
2019-01-19T14:53:29.178Z,99.90
2019-01-19T14:56:01.294Z,99.90
2019-01-19T14:58:36.062Z,99.90
2019-01-19T15:01:20.095Z,99.90
2019-01-19T15:03:54.878Z,99.90
2019-01-19T15:06:49.781Z,99.90
2019-01-19T15:09:43.959Z,99.90
2019-01-19T15:12:21.752Z,99.90
2019-01-19T15:15:03.266Z,99.90
2019-01-19T15:18:04.651Z,99.90
2019-01-19T15:20:42.124Z,99.90
2019-01-19T15:23:36.411Z,99.90
2019-01-19T15:26:11.246Z,99.90
2019-01-19T15:28:53.936Z,99.90
2019-01-19T15:31:43.312Z,99.90
2019-01-19T15:34:34.983Z,99.90
2019-01-19T15:37:16.431Z,99.90
2019-01-19T15:40:03.101Z,99.90
2019-01-19T15:42:37.833Z,99.90
2019-01-19T15:45:25.670Z,99.90
2019-01-19T15:48:09.325Z,99.90
2019-01-19T15:50:56.844Z,99.90
2019-01-19T15:53:46.307Z,99.90
2019-01-19T15:56:36.436Z,99.90
2019-01-19T15:59:23.553Z,99.90
2019-01-19T16:01:56.398Z,99.90
2019-01-19T16:04:38.317Z,99.90
2019-01-19T16:07:12.756Z,99.90
2019-01-19T16:10:02.663Z,99.90
2019-01-19T16:12:34.419Z,99.90
2019-01-19T16:15:24.654Z,99.90
2019-01-19T16:18:11.945Z,99.90
2019-01-19T16:21:05.289Z,99.90
2019-01-19T16:23:43.341Z,99.90
2019-01-19T16:26:22.155Z,99.90
2019-01-19T16:28:54.410Z,99.90
2019-01-19T16:31:28.927Z,99.90
2019-01-19T16:34:22.976Z,99.90
2019-01-19T16:37:06.383Z,99.90
2019-01-19T16:40:00.218Z,99.90
2019-01-19T16:42:35.321Z,99.90
2019-01-19T16:45:39.440Z,99.90
2019-01-19T16:48:15.307Z,99.90
2019-01-19T16:51:21.635Z,99.90
2019-01-19T16:54:01.459Z,99.90
2019-01-19T16:57:11.231Z,99.90
2019-01-19T17:00:11.092Z,99.90
2019-01-19T17:03:13.443Z,99.90
2019-01-19T17:05:59.033Z,99.90
2019-01-19T17:08:57.773Z,99.90
2019-01-19T17:11:29.782Z,99.90
2019-01-19T17:14:10.119Z,99.90
2019-01-19T17:17:03.098Z,99.90
2019-01-19T17:20:01.275Z,99.90
2019-01-19T17:22:33.598Z,99.90
2019-01-19T17:25:09.037Z,99.90
2019-01-19T17:27:40.841Z,99.90
2019-01-19T17:30:42.539Z,99.90
2019-01-19T17:33:28.600Z,99.90
2019-01-19T17:36:19.024Z,99.90
2019-01-19T17:39:25.186Z,99.90
2019-01-19T17:41:59.653Z,99.90
2019-01-19T17:44:34.268Z,99.90
2019-01-19T17:47:09.469Z,99.90
2019-01-19T17:49:44.114Z,99.90
2019-01-19T17:52:34.753Z,99.90
2019-01-19T17:55:23.610Z,99.90
2019-01-19T17:58:12.886Z,99.90
2019-01-19T18:00:51.869Z,99.90
2019-01-19T18:03:24.115Z,99.90
2019-01-19T18:06:02.009Z,99.90
2019-01-19T18:08:51.363Z,99.90
2019-01-19T18:11:28.902Z,99.90
2019-01-19T18:14:03.631Z,99.90
2019-01-19T18:16:59.012Z,99.90
2019-01-19T18:19:53.841Z,99.90
2019-01-19T18:22:49.292Z,99.90
2019-01-19T18:25:21.637Z,99.90
2019-01-19T18:28:15.050Z,99.90
2019-01-19T18:31:15.873Z,99.90
2019-01-19T18:33:56.708Z,99.90
2019-01-19T18:36:35.043Z,99.90
2019-01-19T18:39:15.656Z,99.90
2019-01-19T18:41:59.337Z,99.90
2019-01-19T18:44:49.373Z,99.90
2019-01-19T18:47:22.821Z,99.90
2019-01-19T18:50:17.524Z,99.90
2019-01-19T18:52:55.052Z,99.90
2019-01-19T18:55:43.578Z,99.90
2019-01-19T18:58:38.568Z,99.90
2019-01-19T19:01:28.798Z,99.90
2019-01-19T19:04:13.999Z,99.90
2019-01-19T19:06:54.745Z,99.90
2019-01-19T19:09:41.729Z,99.90
2019-01-19T19:12:36.401Z,99.90
2019-01-19T19:15:24.824Z,99.90
2019-01-19T19:18:23.883Z,99.90
2019-01-19T19:21:04.535Z,99.90
2019-01-19T19:23:45.608Z,99.90
2019-01-19T19:26:23.952Z,99.90
2019-01-19T19:29:10.121Z,99.90
2019-01-19T19:32:00.519Z,99.90
2019-01-19T19:34:32.261Z,99.90
2019-01-19T19:37:22.119Z,99.90
2019-01-19T19:40:09.485Z,99.90
2019-01-19T19:42:48.531Z,99.90
2019-01-19T19:45:35.488Z,99.90
2019-01-19T19:48:07.785Z,99.90
2019-01-19T19:50:52.024Z,99.90
2019-01-19T19:53:20.686Z,99.90
2019-01-19T19:55:48.572Z,99.90
2019-01-19T19:58:17.914Z,99.90
2019-01-19T20:00:47.133Z,99.90
2019-01-19T20:03:23.027Z,99.90
2019-01-19T20:05:51.770Z,99.90
2019-01-19T20:08:20.821Z,99.90
2019-01-19T20:10:49.914Z,99.90
2019-01-19T20:13:18.489Z,99.90
2019-01-19T20:15:47.469Z,99.90
2019-01-19T20:18:15.983Z,99.90
2019-01-19T20:20:45.089Z,99.90
2019-01-19T20:23:15.925Z,99.90
2019-01-19T20:25:44.665Z,99.90
2019-01-19T20:28:13.566Z,99.90
2019-01-19T20:30:42.647Z,99.90
2019-01-19T20:33:11.248Z,99.90
2019-01-19T20:35:39.958Z,99.90
2019-01-19T20:38:09.116Z,99.90
2019-01-19T20:40:37.714Z,99.90
2019-01-19T20:43:06.173Z,99.90
2019-01-19T20:45:35.233Z,99.90
2019-01-19T20:48:03.709Z,99.90
2019-01-19T20:50:32.256Z,99.90
2019-01-19T20:53:00.648Z,99.90
2019-01-19T20:55:29.133Z,99.90
2019-01-19T20:57:57.795Z,99.90
2019-01-19T21:00:26.658Z,99.90
2019-01-19T21:02:55.055Z,99.90
2019-01-19T21:05:24.490Z,99.90
2019-01-19T21:07:52.898Z,99.90
2019-01-19T21:10:21.769Z,99.90
2019-01-19T21:12:50.498Z,99.90
2019-01-19T21:15:18.964Z,99.90
2019-01-19T21:17:47.368Z,99.90
2019-01-19T21:20:15.815Z,99.90
2019-01-19T21:22:44.203Z,99.90
2019-01-19T21:25:13.596Z,99.90
2019-01-19T21:27:42.044Z,99.90
2019-01-19T21:30:12.991Z,99.90
2019-01-19T21:32:41.426Z,99.90
2019-01-19T21:35:10.086Z,99.90
2019-01-19T21:37:38.459Z,99.90
2019-01-19T21:40:10.004Z,99.90
2019-01-19T21:42:38.683Z,99.90
2019-01-19T21:45:10.496Z,99.90
2019-01-19T21:47:39.115Z,99.90
2019-01-19T21:50:09.395Z,99.90
2019-01-19T21:52:37.869Z,99.90
2019-01-19T21:55:08.614Z,99.90
2019-01-19T21:57:37.212Z,99.90
2019-01-19T22:00:08.878Z,99.90
2019-01-19T22:02:37.287Z,99.90
2019-01-19T22:05:06.948Z,99.90
2019-01-19T22:08:31.960Z,99.90
2019-01-19T22:11:00.411Z,99.90
2019-01-19T22:14:03.624Z,99.90
2019-01-19T22:16:32.340Z,99.90
2019-01-19T22:19:00.753Z,99.90
2019-01-19T22:21:29.165Z,99.90
2019-01-19T22:23:57.610Z,99.90
2019-01-19T22:26:26.374Z,99.90
2019-01-19T22:28:54.927Z,99.90
2019-01-19T22:31:23.406Z,99.90
2019-01-19T22:33:51.796Z,99.90
2019-01-19T22:36:20.208Z,99.90
2019-01-19T22:38:49.046Z,99.90
2019-01-19T22:41:17.460Z,99.90
2019-01-19T22:43:45.860Z,99.90
2019-01-19T22:46:14.594Z,99.90
2019-01-19T22:48:43.005Z,99.90
2019-01-19T22:51:11.634Z,99.90
2019-01-19T22:53:40.237Z,99.90
2019-01-19T22:56:08.755Z,99.90
2019-01-19T22:58:37.092Z,99.90
2019-01-19T23:01:26.576Z,99.90
2019-01-19T23:03:55.085Z,99.90
2019-01-19T23:06:23.489Z,99.90
2019-01-19T23:08:52.920Z,99.90
2019-01-19T23:11:21.376Z,99.90
2019-01-19T23:13:49.823Z,99.90
2019-01-19T23:16:18.265Z,99.90
2019-01-19T23:18:46.668Z,99.90
2019-01-19T23:21:15.251Z,99.90
2019-01-19T23:23:43.767Z,99.90
2019-01-19T23:26:12.644Z,99.90
2019-01-19T23:28:41.047Z,99.90
2019-01-19T23:31:09.527Z,99.90
2019-01-19T23:33:38.075Z,99.90
2019-01-19T23:36:06.587Z,99.90
2019-01-19T23:38:35.026Z,99.90
2019-01-19T23:41:08.960Z,99.90
2019-01-19T23:43:33.552Z,99.90
2019-01-19T23:46:02.001Z,99.90
2019-01-19T23:48:32.045Z,99.90
2019-01-19T23:51:03.592Z,99.90
2019-01-19T23:53:32.100Z,99.90
2019-01-19T23:56:00.631Z,99.90
2019-01-19T23:58:29.043Z,99.90
